createdAt,value
2023-04-27T00:02:00.809Z,1.23
2023-04-27T00:04:28.267Z,1.45
2023-04-27T00:06:55.672Z,1.27
2023-04-27T00:09:22.931Z,1.38
2023-04-27T00:11:50.161Z,1.10
2023-04-27T00:14:17.387Z,2.78
2023-04-27T00:16:44.778Z,1.80
2023-04-27T00:19:13.878Z,1.60
2023-04-27T00:21:41.799Z,2.50
2023-04-27T00:24:09.065Z,1.00
2023-04-27T00:26:36.325Z,1.00
2023-04-27T00:29:03.611Z,1.00
2023-04-27T00:31:30.835Z,1.10
2023-04-27T00:33:58.121Z,1.65
2023-04-27T00:36:25.422Z,1.25
2023-04-27T00:38:53.485Z,1.10
2023-04-27T00:41:20.890Z,1.20
2023-04-27T00:43:48.284Z,1.35
2023-04-27T00:46:17.281Z,0.70
2023-04-27T00:48:44.758Z,1.30
2023-04-27T00:51:12.214Z,2.85
2023-04-27T00:53:39.678Z,1.95
2023-04-27T00:56:07.798Z,1.58
2023-04-27T00:58:35.182Z,1.70
2023-04-27T01:01:03.684Z,1.00
2023-04-27T01:03:31.485Z,0.93
2023-04-27T01:06:01.515Z,1.10
2023-04-27T01:08:29.949Z,2.58
2023-04-27T01:10:57.375Z,1.77
2023-04-27T01:13:24.783Z,1.27
2023-04-27T01:15:52.047Z,2.17
2023-04-27T01:18:19.460Z,1.88
2023-04-27T01:20:46.824Z,1.77
2023-04-27T01:23:17.635Z,1.52
2023-04-27T01:25:45.223Z,1.95
2023-04-27T01:28:12.589Z,2.72
2023-04-27T01:30:39.786Z,2.50
2023-04-27T01:33:07.072Z,1.30
2023-04-27T01:35:34.329Z,1.88
2023-04-27T01:38:02.591Z,2.67
2023-04-27T01:40:29.842Z,3.10
2023-04-27T01:42:57.063Z,3.78
2023-04-27T01:45:24.384Z,2.17
2023-04-27T01:47:52.757Z,2.50
2023-04-27T01:50:21.345Z,2.20
2023-04-27T01:52:48.690Z,1.77
2023-04-27T01:55:16.001Z,4.78
2023-04-27T01:57:43.457Z,3.33
2023-04-27T02:00:11.343Z,3.90
2023-04-27T02:02:53.526Z,3.05
2023-04-27T02:05:24.135Z,2.97
2023-04-27T02:07:53.287Z,2.40
2023-04-27T02:10:23.051Z,3.72
2023-04-27T02:12:50.300Z,2.63
2023-04-27T02:15:17.876Z,2.47
2023-04-27T02:17:45.467Z,2.95
2023-04-27T02:20:13.383Z,2.47
2023-04-27T02:22:44.679Z,3.25
2023-04-27T02:25:12.924Z,3.78
2023-04-27T02:27:41.264Z,2.70
2023-04-27T02:30:10.854Z,2.92
2023-04-27T02:32:38.892Z,2.75
2023-04-27T02:35:06.866Z,2.97
2023-04-27T02:37:34.655Z,2.63
2023-04-27T02:40:04.101Z,3.03
2023-04-27T02:42:33.014Z,2.78
2023-04-27T02:45:00.308Z,2.20
2023-04-27T02:47:27.499Z,3.35
2023-04-27T02:49:54.715Z,2.58
2023-04-27T02:52:21.952Z,3.78
2023-04-27T02:54:49.173Z,3.17
2023-04-27T02:57:16.422Z,3.33
2023-04-27T02:59:43.647Z,3.53
2023-04-27T03:02:11.001Z,2.92
2023-04-27T03:04:38.816Z,2.15
2023-04-27T03:07:06.419Z,2.65
2023-04-27T03:09:33.696Z,2.15
2023-04-27T03:12:01.264Z,3.45
2023-04-27T03:14:28.544Z,1.98
2023-04-27T03:16:57.362Z,3.47
2023-04-27T03:19:24.627Z,4.03
2023-04-27T03:21:51.839Z,3.75
2023-04-27T03:24:19.044Z,2.22
2023-04-27T03:26:46.252Z,3.80
2023-04-27T03:29:13.835Z,3.00
2023-04-27T03:31:41.267Z,5.65
2023-04-27T03:34:08.538Z,2.97
2023-04-27T03:36:35.919Z,2.65
2023-04-27T03:39:03.138Z,4.47
2023-04-27T03:41:30.477Z,2.95
2023-04-27T03:43:57.820Z,3.75
2023-04-27T03:46:25.103Z,3.67
2023-04-27T03:48:52.670Z,3.15
2023-04-27T03:51:20.312Z,4.82
2023-04-27T03:53:47.596Z,3.53
2023-04-27T03:56:14.975Z,4.38
2023-04-27T03:58:42.241Z,4.32
2023-04-27T04:01:14.755Z,4.03
2023-04-27T04:03:42.466Z,4.60
2023-04-27T04:06:09.978Z,4.15
2023-04-27T04:08:37.656Z,5.18
2023-04-27T04:11:04.998Z,4.03
2023-04-27T04:13:32.258Z,4.43
2023-04-27T04:16:07.999Z,6.53
2023-04-27T04:18:36.926Z,4.70
2023-04-27T04:21:05.464Z,2.92
2023-04-27T04:23:32.958Z,4.65
2023-04-27T04:26:02.067Z,3.45
2023-04-27T04:28:33.286Z,2.20
2023-04-27T04:31:05.595Z,3.53
2023-04-27T04:33:33.552Z,5.20
2023-04-27T04:36:05.097Z,6.22
2023-04-27T04:38:34.085Z,4.50
2023-04-27T04:41:01.451Z,4.38
2023-04-27T04:43:32.012Z,4.03
2023-04-27T04:46:03.853Z,7.70
2023-04-27T04:48:31.122Z,4.45
2023-04-27T04:50:58.405Z,3.95
2023-04-27T04:53:26.135Z,4.40
2023-04-27T04:55:55.903Z,3.53
2023-04-27T04:58:23.143Z,4.03
2023-04-27T05:00:50.513Z,3.50
2023-04-27T05:03:17.872Z,3.65
2023-04-27T05:05:45.355Z,6.05
2023-04-27T05:08:13.244Z,5.80
2023-04-27T05:10:40.614Z,2.38
2023-04-27T05:13:07.878Z,6.32
2023-04-27T05:15:37.565Z,3.75
2023-04-27T05:18:04.848Z,4.13
2023-04-27T05:20:35.723Z,2.65
2023-04-27T05:23:03.231Z,3.22
2023-04-27T05:25:34.729Z,5.50
2023-04-27T05:28:01.981Z,6.40
2023-04-27T05:30:29.185Z,5.72
2023-04-27T05:32:56.392Z,4.57
2023-04-27T05:35:23.728Z,3.58
2023-04-27T05:37:51.050Z,5.05
2023-04-27T05:40:18.372Z,3.90
2023-04-27T05:42:48.523Z,2.95
2023-04-27T05:45:15.950Z,4.20
2023-04-27T05:47:43.294Z,4.90
2023-04-27T05:50:11.162Z,4.25
2023-04-27T05:52:39.074Z,3.05
2023-04-27T05:55:07.983Z,4.95
2023-04-27T05:57:35.273Z,4.32
2023-04-27T06:00:08.383Z,5.55
2023-04-27T06:02:39.584Z,3.80
2023-04-27T06:05:07.322Z,3.25
2023-04-27T06:07:34.561Z,2.80
2023-04-27T06:10:01.766Z,5.63
2023-04-27T06:12:29.012Z,5.68
2023-04-27T06:14:56.232Z,2.92
2023-04-27T06:17:23.478Z,2.72
2023-04-27T06:19:51.546Z,3.40
2023-04-27T06:22:18.761Z,4.20
2023-04-27T06:24:47.233Z,2.78
2023-04-27T06:27:14.653Z,1.55
2023-04-27T06:29:41.997Z,2.05
2023-04-27T06:32:09.304Z,1.85
2023-04-27T06:34:36.770Z,3.78
2023-04-27T06:37:03.950Z,4.25
2023-04-27T06:39:32.038Z,3.63
2023-04-27T06:41:59.280Z,3.30
2023-04-27T06:44:26.832Z,5.07
2023-04-27T06:46:54.185Z,2.75
2023-04-27T06:49:21.474Z,3.75
2023-04-27T06:51:49.358Z,3.70
2023-04-27T06:54:16.762Z,2.67
2023-04-27T06:56:44.748Z,4.28
2023-04-27T06:59:12.269Z,3.85
2023-04-27T07:01:40.129Z,2.55
2023-04-27T07:04:07.474Z,2.22
2023-04-27T07:06:34.716Z,4.80
2023-04-27T07:09:02.541Z,3.47
2023-04-27T07:11:31.859Z,3.58
2023-04-27T07:13:59.068Z,3.42
2023-04-27T07:16:26.857Z,1.92
2023-04-27T07:18:54.209Z,1.98
2023-04-27T07:21:21.568Z,0.85
2023-04-27T07:23:48.771Z,1.90
2023-04-27T07:26:16.029Z,2.17
2023-04-27T07:28:44.132Z,3.70
2023-04-27T07:31:11.498Z,1.88
2023-04-27T07:33:38.849Z,3.90
2023-04-27T07:36:07.281Z,3.55
2023-04-27T07:38:34.734Z,5.13
2023-04-27T07:41:05.769Z,3.08
2023-04-27T07:43:33.289Z,2.60
2023-04-27T07:46:00.744Z,3.45
2023-04-27T07:48:31.206Z,3.08
2023-04-27T07:50:58.485Z,3.05
2023-04-27T07:53:25.718Z,2.05
2023-04-27T07:55:52.918Z,1.02
2023-04-27T07:58:20.264Z,0.80
2023-04-27T08:00:47.578Z,0.95
2023-04-27T08:03:14.963Z,4.15
2023-04-27T08:05:42.602Z,0.43
2023-04-27T08:08:09.990Z,0.70
2023-04-27T08:10:38.137Z,1.75
2023-04-27T08:13:06.136Z,1.02
2023-04-27T08:15:33.343Z,0.90
2023-04-27T08:18:00.700Z,0.73
2023-04-27T08:20:28.065Z,2.47
2023-04-27T08:22:55.529Z,1.10
2023-04-27T08:25:22.713Z,0.70
2023-04-27T08:27:49.957Z,0.68
2023-04-27T08:30:17.660Z,2.05
2023-04-27T08:32:44.906Z,1.65
2023-04-27T08:35:13.499Z,1.65
2023-04-27T08:37:40.920Z,1.25
2023-04-27T08:40:10.066Z,1.75
2023-04-27T08:42:37.820Z,1.33
2023-04-27T08:45:12.248Z,0.98
2023-04-27T08:47:43.753Z,1.17
2023-04-27T08:50:16.277Z,1.38
2023-04-27T08:52:51.382Z,1.10
2023-04-27T08:55:24.470Z,1.05
2023-04-27T08:57:58.222Z,1.88
2023-04-27T09:00:46.645Z,0.70
2023-04-27T09:03:27.620Z,0.73
2023-04-27T09:06:04.507Z,1.38
2023-04-27T09:08:49.843Z,1.38
2023-04-27T09:11:29.765Z,0.85
2023-04-27T09:13:58.783Z,0.93
2023-04-27T09:16:29.169Z,2.95
2023-04-27T09:18:58.427Z,0.55
2023-04-27T09:21:38.177Z,1.17
2023-04-27T09:24:13.323Z,0.38
2023-04-27T09:26:42.936Z,0.50
2023-04-27T09:29:10.296Z,2.75
2023-04-27T09:31:37.598Z,1.98
2023-04-27T09:34:04.937Z,0.98
2023-04-27T09:36:32.855Z,0.40
2023-04-27T09:39:04.676Z,0.80
2023-04-27T09:41:33.315Z,2.13
2023-04-27T09:44:01.982Z,1.20
2023-04-27T09:46:30.696Z,0.88
2023-04-27T09:48:58.222Z,2.20
2023-04-27T09:51:26.053Z,1.10
2023-04-27T09:53:58.569Z,1.60
2023-04-27T09:57:04.844Z,2.78
2023-04-27T09:59:49.424Z,1.43
2023-04-27T10:05:12.977Z,1.52
2023-04-27T10:07:41.580Z,1.05
2023-04-27T10:10:20.316Z,1.75
2023-04-27T10:13:01.768Z,1.50
2023-04-27T10:15:30.413Z,2.95
2023-04-27T10:18:04.528Z,2.83
2023-04-27T10:20:36.966Z,1.70
2023-04-27T10:23:04.775Z,2.20
2023-04-27T10:25:40.860Z,2.42
2023-04-27T10:28:09.119Z,2.22
2023-04-27T10:30:46.222Z,1.55
2023-04-27T10:33:17.582Z,1.83
2023-04-27T10:35:55.129Z,3.08
2023-04-27T10:38:28.412Z,1.23
2023-04-27T10:40:58.103Z,1.20
2023-04-27T10:43:27.796Z,3.30
2023-04-27T10:45:55.851Z,1.75
2023-04-27T10:48:23.134Z,2.33
2023-04-27T10:50:53.169Z,0.95
2023-04-27T10:53:20.534Z,2.53
2023-04-27T10:55:47.855Z,1.52
2023-04-27T10:58:15.292Z,1.65
2023-04-27T11:00:44.191Z,1.45
2023-04-27T11:03:19.464Z,1.92
2023-04-27T11:05:49.484Z,0.80
2023-04-27T11:08:18.776Z,1.40
2023-04-27T11:10:49.884Z,0.50
2023-04-27T11:13:22.450Z,0.50
2023-04-27T11:15:54.854Z,0.43
2023-04-27T11:18:27.734Z,0.57
2023-04-27T11:21:07.341Z,0.73
2023-04-27T11:23:38.527Z,1.38
2023-04-27T11:26:11.019Z,0.80
2023-04-27T11:28:39.122Z,0.70
2023-04-27T11:31:06.819Z,1.80
2023-04-27T11:33:35.831Z,1.10
2023-04-27T11:36:03.485Z,1.65
2023-04-27T11:38:34.247Z,1.40
2023-04-27T11:41:04.830Z,1.83
2023-04-27T11:43:32.987Z,1.70
2023-04-27T11:46:08.126Z,1.98
2023-04-27T11:48:37.599Z,1.75
2023-04-27T11:51:06.096Z,2.97
2023-04-27T11:53:36.946Z,5.03
2023-04-27T11:56:07.741Z,3.00
2023-04-27T11:58:39.681Z,3.20
2023-04-27T12:01:07.708Z,5.28
2023-04-27T12:03:35.722Z,3.42
2023-04-27T12:06:16.601Z,3.95
2023-04-27T12:08:51.123Z,4.43
2023-04-27T12:11:18.833Z,3.08
2023-04-27T12:13:47.178Z,5.07
2023-04-27T12:16:14.582Z,4.40
2023-04-27T12:18:42.058Z,6.38
2023-04-27T12:21:10.315Z,4.65
2023-04-27T12:23:37.555Z,6.65
2023-04-27T12:26:05.108Z,6.82
2023-04-27T12:28:32.431Z,8.48
2023-04-27T12:31:03.932Z,6.22
2023-04-27T12:33:31.930Z,6.78
2023-04-27T12:35:59.248Z,6.30
2023-04-27T12:38:27.029Z,6.90
2023-04-27T12:40:54.284Z,7.28
2023-04-27T12:43:21.570Z,7.22
2023-04-27T12:45:48.930Z,6.88
2023-04-27T12:48:17.704Z,6.60
2023-04-27T12:50:45.141Z,7.50
2023-04-27T12:53:12.459Z,7.82
2023-04-27T12:55:39.847Z,7.75
2023-04-27T12:58:08.178Z,8.93
2023-04-27T13:00:35.817Z,8.65
2023-04-27T13:03:03.694Z,8.07
2023-04-27T13:05:32.313Z,10.40
2023-04-27T13:07:59.811Z,8.77
2023-04-27T13:10:28.740Z,10.95
2023-04-27T13:12:56.090Z,9.02
2023-04-27T13:15:23.324Z,9.35
2023-04-27T13:17:53.042Z,8.48
2023-04-27T13:20:21.098Z,11.63
2023-04-27T13:22:48.415Z,10.40
2023-04-27T13:25:16.767Z,8.13
2023-04-27T13:27:44.001Z,8.43
2023-04-27T13:30:11.662Z,10.57
2023-04-27T13:32:38.996Z,8.20
2023-04-27T13:35:07.722Z,6.68
2023-04-27T13:37:35.094Z,8.93
2023-04-27T13:40:02.366Z,6.15
2023-04-27T13:42:29.737Z,6.78
2023-04-27T13:44:57.097Z,7.53
2023-04-27T13:47:24.405Z,7.05
2023-04-27T13:49:51.639Z,7.53
2023-04-27T13:52:18.858Z,7.40
2023-04-27T13:54:46.023Z,6.80
2023-04-27T13:57:13.232Z,8.38
2023-04-27T13:59:40.458Z,9.30
2023-04-27T14:02:08.353Z,6.72
2023-04-27T14:04:35.692Z,6.28
2023-04-27T14:07:03.005Z,6.50
2023-04-27T14:09:30.403Z,7.28
2023-04-27T14:11:57.732Z,7.90
2023-04-27T14:14:25.041Z,6.13
2023-04-27T14:16:56.790Z,8.40
2023-04-27T14:19:24.153Z,8.25
2023-04-27T14:21:51.401Z,7.95
2023-04-27T14:24:18.730Z,7.78
2023-04-27T14:26:47.514Z,7.30
2023-04-27T14:29:15.100Z,6.90
2023-04-27T14:31:42.718Z,6.88
2023-04-27T14:34:10.830Z,7.78
2023-04-27T14:36:38.074Z,8.60
2023-04-27T14:39:06.685Z,8.77
2023-04-27T14:41:35.509Z,6.35
2023-04-27T14:44:04.484Z,6.90
2023-04-27T14:46:31.841Z,8.10
2023-04-27T14:48:59.260Z,6.78
2023-04-27T14:51:26.645Z,6.35
2023-04-27T14:53:53.973Z,6.82
2023-04-27T14:56:23.070Z,7.35
2023-04-27T14:58:50.383Z,7.20
2023-04-27T15:01:18.268Z,8.15
2023-04-27T15:03:45.961Z,7.15
2023-04-27T15:06:13.812Z,6.35
2023-04-27T15:08:41.035Z,7.25
2023-04-27T15:11:08.329Z,6.88
2023-04-27T15:13:35.590Z,7.05
2023-04-27T15:16:04.858Z,6.70
2023-04-27T15:18:32.473Z,8.23
2023-04-27T15:21:00.128Z,7.57
2023-04-27T15:23:27.803Z,8.85
2023-04-27T15:25:56.587Z,6.47
2023-04-27T15:28:24.097Z,6.88
2023-04-27T15:30:51.545Z,5.55
2023-04-27T15:33:19.129Z,8.10
2023-04-27T15:35:46.570Z,8.60
2023-04-27T15:38:15.086Z,7.00
2023-04-27T15:40:42.444Z,7.05
2023-04-27T15:43:09.708Z,8.32
2023-04-27T15:45:37.299Z,5.40
2023-04-27T15:48:04.768Z,7.32
2023-04-27T15:50:32.045Z,6.85
2023-04-27T15:52:59.277Z,9.20
2023-04-27T15:55:26.620Z,7.38
2023-04-27T15:57:54.116Z,7.80
2023-04-27T16:00:22.493Z,9.45
2023-04-27T16:02:50.281Z,8.32
2023-04-27T16:05:17.862Z,9.30
2023-04-27T16:07:45.775Z,8.70
2023-04-27T16:10:13.458Z,9.55
2023-04-27T16:12:41.009Z,7.53
2023-04-27T16:15:10.923Z,7.82
2023-04-27T16:17:39.261Z,8.30
2023-04-27T16:20:07.609Z,8.60
2023-04-27T16:22:36.369Z,8.82
2023-04-27T16:25:06.575Z,8.63
2023-04-27T16:27:34.316Z,8.75
2023-04-27T16:30:01.679Z,7.55
2023-04-27T16:32:29.008Z,7.68
2023-04-27T16:34:56.342Z,10.00
2023-04-27T16:37:23.705Z,10.75
2023-04-27T16:39:51.254Z,8.27
2023-04-27T16:42:20.599Z,9.20
2023-04-27T16:44:48.097Z,11.15
2023-04-27T16:47:15.380Z,9.35
2023-04-27T16:49:44.208Z,8.45
2023-04-27T16:52:12.122Z,9.18
2023-04-27T16:54:39.341Z,9.68
2023-04-27T16:57:07.741Z,9.13
2023-04-27T16:59:34.998Z,10.13
2023-04-27T17:02:12.856Z,11.18
2023-04-27T17:07:15.794Z,10.73
2023-04-27T17:09:43.057Z,9.18
2023-04-27T17:12:14.861Z,12.00
2023-04-27T17:14:42.577Z,12.35
2023-04-27T17:17:11.088Z,10.27
2023-04-27T17:19:39.076Z,9.85
2023-04-27T17:22:08.393Z,9.68
2023-04-27T17:24:35.635Z,9.27
2023-04-27T17:27:04.267Z,11.27
2023-04-27T17:29:31.914Z,12.15
2023-04-27T17:31:59.217Z,8.70
2023-04-27T17:34:26.433Z,10.25
2023-04-27T17:36:53.695Z,8.40
2023-04-27T17:39:22.669Z,9.48
2023-04-27T17:41:49.924Z,8.43
2023-04-27T17:44:17.353Z,7.30
2023-04-27T17:46:49.252Z,8.45
2023-04-27T17:49:17.680Z,8.27
2023-04-27T17:51:45.627Z,9.70
2023-04-27T17:54:13.057Z,6.45
2023-04-27T17:56:40.423Z,5.05
2023-04-27T17:59:08.862Z,5.20
2023-04-27T18:01:36.522Z,4.65
2023-04-27T18:04:06.499Z,2.95
2023-04-27T18:06:34.039Z,2.47
2023-04-27T18:09:01.589Z,2.30
2023-04-27T18:11:29.177Z,2.83
2023-04-27T18:13:58.060Z,2.00
2023-04-27T18:16:25.708Z,1.67
2023-04-27T18:18:53.083Z,3.92
2023-04-27T18:21:20.402Z,2.10
2023-04-27T18:23:47.780Z,3.78
2023-04-27T18:26:15.013Z,6.00
2023-04-27T18:28:42.252Z,2.33
2023-04-27T18:31:16.138Z,4.95
2023-04-27T18:33:44.282Z,3.03
2023-04-27T18:36:11.705Z,3.55
2023-04-27T18:38:38.979Z,2.28
2023-04-27T18:41:06.793Z,2.63
2023-04-27T18:43:37.137Z,3.97
2023-04-27T18:46:04.894Z,2.90
2023-04-27T18:48:32.423Z,3.42
2023-04-27T18:50:59.787Z,2.38
2023-04-27T18:53:27.874Z,3.28
2023-04-27T18:55:55.594Z,2.83
2023-04-27T18:58:23.109Z,3.45
2023-04-27T19:00:50.498Z,4.13
2023-04-27T19:03:17.959Z,5.18
2023-04-27T19:05:45.430Z,3.08
2023-04-27T19:08:12.806Z,3.13
2023-04-27T19:10:42.814Z,5.53
2023-04-27T19:13:10.111Z,3.40
2023-04-27T19:15:37.429Z,3.33
2023-04-27T19:18:10.650Z,1.95
2023-04-27T19:20:39.248Z,2.70
2023-04-27T19:23:07.954Z,2.38
2023-04-27T19:25:35.684Z,4.57
2023-04-27T19:28:02.950Z,3.03
2023-04-27T19:30:30.346Z,2.53
2023-04-27T19:32:57.572Z,2.78
2023-04-27T19:35:26.380Z,2.50
2023-04-27T19:37:53.585Z,2.88
2023-04-27T19:40:21.387Z,2.05
2023-04-27T19:42:48.667Z,2.10
2023-04-27T19:45:17.888Z,1.80
2023-04-27T19:47:45.983Z,1.27
2023-04-27T19:50:13.421Z,3.13
2023-04-27T19:52:40.829Z,2.15
2023-04-27T19:55:08.358Z,2.97
2023-04-27T19:57:36.373Z,2.05
2023-04-27T20:00:06.830Z,3.15
2023-04-27T20:02:40.447Z,2.50
2023-04-27T20:05:08.674Z,1.95
2023-04-27T20:07:37.378Z,3.55
2023-04-27T20:10:05.513Z,1.77
2023-04-27T20:12:51.583Z,1.95
2023-04-27T20:15:20.214Z,1.63
2023-04-27T20:17:47.788Z,2.17
2023-04-27T20:20:15.076Z,3.35
2023-04-27T20:22:42.696Z,2.35
2023-04-27T20:25:10.017Z,3.00
2023-04-27T20:27:37.241Z,2.00
2023-04-27T20:30:05.003Z,2.33
2023-04-27T20:32:32.262Z,2.67
2023-04-27T20:35:01.404Z,2.58
2023-04-27T20:37:29.375Z,2.05
2023-04-27T20:39:56.746Z,2.05
2023-04-27T20:42:24.486Z,3.38
2023-04-27T20:44:54.647Z,2.47
2023-04-27T20:47:22.451Z,2.17
2023-04-27T20:49:53.453Z,3.10
2023-04-27T20:52:21.311Z,2.80
2023-04-27T20:54:49.411Z,3.03
2023-04-27T20:57:17.680Z,2.47
2023-04-27T20:59:45.835Z,2.63
2023-04-27T21:02:13.795Z,4.32
2023-04-27T21:04:42.271Z,1.42
2023-04-27T21:07:10.548Z,2.45
2023-04-27T21:09:39.082Z,3.35
2023-04-27T21:12:07.301Z,1.50
2023-04-27T21:14:35.348Z,2.35
2023-04-27T21:17:03.753Z,3.15
2023-04-27T21:19:31.723Z,4.25
2023-04-27T21:21:59.154Z,2.63
2023-04-27T21:24:26.933Z,1.77
2023-04-27T21:26:54.892Z,2.65
2023-04-27T21:29:22.517Z,2.53
2023-04-27T21:31:51.002Z,1.48
2023-04-27T21:34:18.879Z,1.98
2023-04-27T21:36:49.399Z,1.58
2023-04-27T21:39:16.712Z,1.63
2023-04-27T21:41:44.493Z,1.15
2023-04-27T21:44:16.027Z,2.88
2023-04-27T21:46:44.397Z,2.40
2023-04-27T21:49:12.292Z,2.65
2023-04-27T21:51:39.774Z,4.25
2023-04-27T21:54:07.235Z,2.00
2023-04-27T21:56:35.546Z,1.90
2023-04-27T21:59:04.203Z,1.85
2023-04-27T22:01:32.298Z,3.15
2023-04-27T22:04:06.394Z,1.98
2023-04-27T22:06:34.466Z,1.58
2023-04-27T22:09:06.595Z,1.63
2023-04-27T22:11:35.553Z,1.00
2023-04-27T22:14:03.579Z,1.13
2023-04-27T22:16:35.187Z,2.17
2023-04-27T22:19:05.310Z,3.08
2023-04-27T22:21:33.355Z,2.10
2023-04-27T22:24:01.314Z,1.38
2023-04-27T22:26:32.216Z,1.02
2023-04-27T22:29:00.136Z,2.88
2023-04-27T22:31:28.672Z,1.75
2023-04-27T22:33:58.097Z,0.95
2023-04-27T22:36:28.862Z,2.55
2023-04-27T22:39:02.252Z,0.85
2023-04-27T22:41:32.533Z,1.83
2023-04-27T22:44:01.502Z,1.73
2023-04-27T22:46:32.820Z,1.92
2023-04-27T22:49:01.871Z,1.55
2023-04-27T22:51:30.039Z,2.13
2023-04-27T22:53:58.335Z,1.13
2023-04-27T22:56:26.552Z,1.95
2023-04-27T22:58:57.458Z,1.15
2023-04-27T23:01:24.858Z,1.17
2023-04-27T23:03:53.543Z,1.67
2023-04-27T23:06:21.162Z,1.30
2023-04-27T23:08:48.385Z,2.42
2023-04-27T23:11:18.875Z,1.98
2023-04-27T23:13:48.060Z,1.35
2023-04-27T23:16:15.628Z,3.72
2023-04-27T23:18:42.884Z,1.40
2023-04-27T23:21:11.770Z,1.45
2023-04-27T23:23:39.046Z,1.83
2023-04-27T23:26:16.343Z,4.25
2023-04-27T23:28:43.741Z,1.20
2023-04-27T23:31:11.265Z,3.50
2023-04-27T23:33:38.501Z,2.03
2023-04-27T23:36:06.320Z,1.88
2023-04-27T23:38:33.588Z,1.83
2023-04-27T23:41:00.970Z,1.30
2023-04-27T23:43:28.361Z,1.38
2023-04-27T23:45:55.805Z,1.60
2023-04-27T23:48:23.135Z,1.33
2023-04-27T23:51:01.649Z,1.77
2023-04-27T23:53:29.435Z,2.08
2023-04-27T23:55:57.043Z,1.85
2023-04-27T23:58:25.967Z,2.58
